METAR Data
IDs: Format: Raw Decoded Include TAF

Data at: 0957 UTC 18 Jan 2022

WMKJ 180900Z VRB10KT 9999 FEW018 32/22 Q1008